createdAt,value
2023-04-03T00:01:42.701Z,101022.19
2023-04-03T00:04:14.608Z,101023.97
2023-04-03T00:06:43.760Z,101019.75
2023-04-03T00:09:12.576Z,101025.13
2023-04-03T00:11:41.681Z,101030.31
2023-04-03T00:14:10.543Z,101031.28
2023-04-03T00:16:41.017Z,101026.19
2023-04-03T00:19:12.742Z,101035.69
2023-04-03T00:21:42.332Z,101035.72
2023-04-03T00:24:11.088Z,101036.81
2023-04-03T00:26:40.136Z,101030.06
2023-04-03T00:29:08.909Z,101031.00
2023-04-03T00:31:38.019Z,101037.34
2023-04-03T00:34:08.401Z,101033.06
2023-04-03T00:36:37.605Z,101030.47
2023-04-03T00:39:06.961Z,101036.53
2023-04-03T00:41:36.232Z,101031.63
2023-04-03T00:44:25.066Z,101035.84
2023-04-03T00:46:54.251Z,101035.78
2023-04-03T00:49:25.411Z,101038.66
2023-04-03T00:51:55.876Z,101048.44
2023-04-03T00:54:24.786Z,101044.88
2023-04-03T00:56:57.747Z,101054.38
2023-04-03T00:59:32.362Z,101050.84
2023-04-03T01:02:02.595Z,101049.22
2023-04-03T01:04:37.164Z,101055.31
2023-04-03T01:07:13.042Z,101065.00
2023-04-03T01:09:42.984Z,101064.97
2023-04-03T01:12:17.824Z,101050.69
2023-04-03T01:14:47.327Z,101079.19
2023-04-03T01:17:36.905Z,101074.03
2023-04-03T01:20:53.410Z,101077.38
2023-04-03T01:23:38.846Z,101079.47
2023-04-03T01:26:10.026Z,101090.50
2023-04-03T01:28:39.409Z,101087.91
2023-04-03T01:31:20.652Z,101094.00
2023-04-03T01:33:53.266Z,101091.50
2023-04-03T01:36:26.288Z,101088.06
2023-04-03T01:38:57.225Z,101090.66
2023-04-03T01:41:26.647Z,101094.22
2023-04-03T01:44:00.637Z,101102.00
2023-04-03T01:46:29.750Z,101096.88
2023-04-03T01:49:00.750Z,101092.56
2023-04-03T01:51:29.504Z,101106.38
2023-04-03T01:53:58.816Z,101102.06
2023-04-03T01:56:27.734Z,101096.91
2023-04-03T01:58:57.462Z,101103.97
2023-04-03T02:01:27.018Z,101105.72
2023-04-03T02:03:56.538Z,101114.47
2023-04-03T02:06:27.310Z,101117.00
2023-04-03T02:08:56.472Z,101114.56
2023-04-03T02:11:25.252Z,101115.38
2023-04-03T02:13:55.664Z,101115.28
2023-04-03T02:16:24.547Z,101122.47
2023-04-03T02:18:53.643Z,101122.50
2023-04-03T02:21:22.819Z,101121.69
2023-04-03T02:23:53.270Z,101117.22
2023-04-03T02:26:22.094Z,101116.47
2023-04-03T02:28:51.179Z,101124.31
2023-04-03T02:31:20.561Z,101126.88
2023-04-03T02:33:51.138Z,101123.47
2023-04-03T02:36:20.639Z,101138.22
2023-04-03T02:38:56.795Z,101130.44
2023-04-03T02:41:26.869Z,101129.63
2023-04-03T02:43:56.634Z,101138.47
2023-04-03T02:46:25.460Z,101140.06
2023-04-03T02:48:54.658Z,101144.41
2023-04-03T02:51:23.946Z,101150.56
2023-04-03T02:53:56.054Z,101146.22
2023-04-03T02:56:28.916Z,101143.00
2023-04-03T02:58:58.131Z,101140.97
2023-04-03T03:01:29.580Z,101147.13
2023-04-03T03:03:58.693Z,101140.28
2023-04-03T03:06:28.063Z,101139.44
2023-04-03T03:08:58.900Z,101139.50
2023-04-03T03:11:28.035Z,101139.34
2023-04-03T03:13:57.113Z,101145.56
2023-04-03T03:16:28.114Z,101142.31
2023-04-03T03:18:59.196Z,101150.16
2023-04-03T03:21:29.061Z,101151.03
2023-04-03T03:23:59.546Z,101151.75
2023-04-03T03:26:29.315Z,101148.41
2023-04-03T03:28:58.444Z,101152.69
2023-04-03T03:31:27.308Z,101151.78
2023-04-03T03:33:56.392Z,101156.25
2023-04-03T03:36:25.630Z,101157.09
2023-04-03T03:38:54.742Z,101156.19
2023-04-03T03:41:25.096Z,101157.06
2023-04-03T03:43:54.636Z,101153.81
2023-04-03T03:46:23.520Z,101151.25
2023-04-03T03:48:53.405Z,101149.53
2023-04-03T03:51:22.267Z,101154.72
2023-04-03T03:53:51.936Z,101157.22
2023-04-03T03:56:22.390Z,101161.03
2023-04-03T03:58:53.556Z,101161.75
2023-04-03T04:01:24.209Z,101166.03
2023-04-03T04:03:55.070Z,101158.28
2023-04-03T04:06:28.584Z,101172.06
2023-04-03T04:09:01.256Z,101173.91
2023-04-03T04:11:31.300Z,101172.25
2023-04-03T04:14:02.043Z,101178.22
2023-04-03T04:16:32.459Z,101175.63
2023-04-03T04:19:08.412Z,101179.94
2023-04-03T04:21:39.264Z,101179.19
2023-04-03T04:24:10.048Z,101185.22
2023-04-03T04:26:39.818Z,101188.66
2023-04-03T04:29:13.419Z,101185.25
2023-04-03T04:31:42.332Z,101183.59
2023-04-03T04:34:12.148Z,101194.81
2023-04-03T04:36:41.608Z,101201.59
2023-04-03T04:39:11.237Z,101194.72
2023-04-03T04:41:40.840Z,101197.34
2023-04-03T04:44:12.611Z,101204.16
2023-04-03T04:46:42.544Z,101206.75
2023-04-03T04:49:12.227Z,101210.13
2023-04-03T04:51:50.942Z,101214.47
2023-04-03T04:54:24.688Z,101211.91
2023-04-03T04:56:54.402Z,101218.78
2023-04-03T04:59:25.034Z,101214.31
2023-04-03T05:01:56.492Z,101224.69
2023-04-03T05:04:25.921Z,101223.00
2023-04-03T05:07:00.425Z,101225.59
2023-04-03T05:09:32.030Z,101224.78
2023-04-03T05:12:01.170Z,101222.03
2023-04-03T05:14:35.698Z,101230.59
2023-04-03T05:17:08.672Z,101228.88
2023-04-03T05:19:41.439Z,101230.41
2023-04-03T05:22:12.114Z,101235.59
2023-04-03T05:24:41.308Z,101240.66
2023-04-03T05:27:12.031Z,101231.09
2023-04-03T05:29:46.941Z,101239.72
2023-04-03T05:32:21.456Z,101244.06
2023-04-03T05:34:54.696Z,101260.31
2023-04-03T05:37:23.703Z,101253.44
2023-04-03T05:39:54.950Z,101265.41
2023-04-03T05:42:23.876Z,101259.22
2023-04-03T05:44:54.475Z,101261.19
2023-04-03T05:47:23.556Z,101265.25
2023-04-03T05:49:52.841Z,101255.09
2023-04-03T05:52:29.367Z,101270.69
2023-04-03T05:54:59.269Z,101263.78
2023-04-03T05:57:30.751Z,101262.00
2023-04-03T06:00:01.426Z,101262.88
2023-04-03T06:02:32.521Z,101264.41
2023-04-03T06:05:03.532Z,101263.44
2023-04-03T06:07:32.494Z,101271.16
2023-04-03T06:10:02.410Z,101284.81
2023-04-03T06:12:31.781Z,101273.38
2023-04-03T06:15:02.431Z,101278.47
2023-04-03T06:17:32.229Z,101278.19
2023-04-03T06:20:01.496Z,101281.63
2023-04-03T06:22:31.821Z,101274.72
2023-04-03T06:25:01.054Z,101282.31
2023-04-03T06:27:30.324Z,101287.53
2023-04-03T06:29:59.361Z,101296.91
2023-04-03T06:32:29.601Z,101293.75
2023-04-03T06:34:59.454Z,101299.13
2023-04-03T06:37:29.873Z,101294.72
2023-04-03T06:39:59.224Z,101297.97
2023-04-03T06:42:28.490Z,101289.84
2023-04-03T06:45:03.831Z,101297.47
2023-04-03T06:47:34.194Z,101296.28
2023-04-03T06:50:03.600Z,101292.00
2023-04-03T06:52:32.611Z,101290.13
2023-04-03T06:55:01.751Z,101291.47
2023-04-03T06:57:30.677Z,101304.38
2023-04-03T06:59:59.840Z,101297.91
2023-04-03T07:02:28.756Z,101301.03
2023-04-03T07:04:59.475Z,101301.88
2023-04-03T07:07:28.636Z,101308.22
2023-04-03T07:09:57.754Z,101315.78
2023-04-03T07:12:27.326Z,101311.00
2023-04-03T07:14:56.626Z,101319.88
2023-04-03T07:17:26.397Z,101314.00
2023-04-03T07:19:55.603Z,101325.06
2023-04-03T07:22:25.766Z,101317.59
2023-04-03T07:24:54.925Z,101322.78
2023-04-03T07:27:23.772Z,101324.19
2023-04-03T07:29:53.923Z,101321.03
2023-04-03T07:32:23.822Z,101326.75
2023-04-03T07:34:52.896Z,101322.25
2023-04-03T07:37:21.702Z,101326.63
2023-04-03T07:39:52.167Z,101332.28
2023-04-03T07:42:21.462Z,101332.47
2023-04-03T07:44:50.564Z,101337.78
2023-04-03T07:47:19.471Z,101328.56
2023-04-03T07:49:49.346Z,101334.00
2023-04-03T07:52:18.341Z,101330.50
2023-04-03T07:54:47.417Z,101338.63
2023-04-03T07:57:17.810Z,101344.88
2023-04-03T07:59:46.942Z,101335.81
2023-04-03T08:02:15.749Z,101334.97
2023-04-03T08:04:45.042Z,101341.47
2023-04-03T08:07:13.968Z,101340.50
2023-04-03T08:09:43.220Z,101340.38
2023-04-03T08:12:12.540Z,101338.06
2023-04-03T08:14:43.140Z,101341.25
2023-04-03T08:17:13.630Z,101331.97
2023-04-03T08:19:43.239Z,101341.06
2023-04-03T08:22:12.127Z,101340.31
2023-04-03T08:24:52.432Z,101337.91
2023-04-03T08:27:28.238Z,101344.38
2023-04-03T08:29:59.045Z,101357.19
2023-04-03T08:32:28.111Z,101346.56
2023-04-03T08:34:57.249Z,101345.53
2023-04-03T08:37:26.063Z,101349.06
2023-04-03T08:39:55.489Z,101348.63
2023-04-03T08:42:44.077Z,101355.69
2023-04-03T08:45:21.533Z,101353.56
2023-04-03T08:47:58.740Z,101341.72
2023-04-03T08:50:36.217Z,101356.06
2023-04-03T08:53:14.214Z,101349.91
2023-04-03T08:55:47.384Z,101341.09
2023-04-03T08:58:21.317Z,101342.84
2023-04-03T09:00:58.154Z,101347.19
2023-04-03T09:03:27.401Z,101350.47
2023-04-03T09:06:04.425Z,101341.94
2023-04-03T09:08:40.397Z,101349.66
2023-04-03T09:11:23.052Z,101350.88
2023-04-03T09:14:02.203Z,101349.25
2023-04-03T09:16:50.689Z,101354.47
2023-04-03T09:19:38.377Z,101361.78
2023-04-03T09:22:19.851Z,101352.53
2023-04-03T09:24:54.975Z,101340.34
2023-04-03T09:27:24.109Z,101361.72
2023-04-03T09:29:57.122Z,101355.34
2023-04-03T09:32:32.652Z,101335.22
2023-04-03T09:35:19.108Z,101346.56
2023-04-03T09:37:53.217Z,101360.16
2023-04-03T09:40:39.552Z,101353.09
2023-04-03T09:43:29.660Z,101349.81
2023-04-03T09:46:21.003Z,101354.50
2023-04-03T09:49:08.102Z,101362.69
2023-04-03T09:51:39.123Z,101353.41
2023-04-03T09:54:41.060Z,101362.25
2023-04-03T09:57:15.226Z,101349.03
2023-04-03T09:59:59.290Z,101343.50
2023-04-03T10:02:39.604Z,101358.31
2023-04-03T10:05:33.186Z,101357.00
2023-04-03T10:08:21.656Z,101365.41
2023-04-03T10:11:11.971Z,101377.38
2023-04-03T10:13:54.336Z,101364.91
2023-04-03T10:16:29.514Z,101373.38
2023-04-03T10:19:23.896Z,101361.56
2023-04-03T10:22:02.667Z,101373.16
2023-04-03T10:24:46.033Z,101358.44
2023-04-03T10:27:26.239Z,101367.72
2023-04-03T10:30:06.169Z,101359.28
2023-04-03T10:32:58.269Z,101367.25
2023-04-03T10:35:44.231Z,101366.16
2023-04-03T10:38:28.552Z,101363.66
2023-04-03T10:41:07.742Z,101365.84
2023-04-03T10:43:46.630Z,101354.50
2023-04-03T10:46:24.863Z,101352.22
2023-04-03T10:49:17.828Z,101346.72
2023-04-03T10:51:50.617Z,101338.69
2023-04-03T10:54:27.114Z,101358.25
2023-04-03T10:57:11.688Z,101342.25
2023-04-03T10:59:48.611Z,101340.19
2023-04-03T11:02:30.217Z,101357.50
2023-04-03T11:05:10.406Z,101346.97
2023-04-03T11:07:44.429Z,101353.88
2023-04-03T11:10:24.696Z,101346.13
2023-04-03T11:13:03.732Z,101354.78
2023-04-03T11:15:35.576Z,101362.41
2023-04-03T11:18:12.045Z,101356.41
2023-04-03T11:20:49.654Z,101339.88
2023-04-03T11:23:30.246Z,101330.72
2023-04-03T11:26:12.881Z,101324.50
2023-04-03T11:28:42.970Z,101334.50
2023-04-03T11:31:32.124Z,101338.97
2023-04-03T11:34:26.185Z,101341.91
2023-04-03T11:37:01.610Z,101335.63
2023-04-03T11:39:35.935Z,101326.53
2023-04-03T11:42:31.727Z,101338.69
2023-04-03T11:45:35.653Z,101335.97
2023-04-03T11:48:21.205Z,101333.19
2023-04-03T11:50:53.596Z,101324.50
2023-04-03T11:53:44.010Z,101326.03
2023-04-03T11:56:33.244Z,101315.75
2023-04-03T11:59:26.119Z,101322.81
2023-04-03T12:01:56.755Z,101325.91
2023-04-03T12:04:30.044Z,101319.16
2023-04-03T12:07:24.384Z,101313.41
2023-04-03T12:10:02.077Z,101322.53
2023-04-03T12:12:39.851Z,101327.47
2023-04-03T12:15:54.771Z,101337.66
2023-04-03T12:19:04.618Z,101328.34
2023-04-03T12:22:20.240Z,101318.38
2023-04-03T12:24:54.144Z,101319.72
2023-04-03T12:27:29.897Z,101324.25
2023-04-03T12:30:18.246Z,101321.03
2023-04-03T12:33:22.375Z,101318.50
2023-04-03T12:36:09.105Z,101325.50
2023-04-03T12:39:05.601Z,101315.13
2023-04-03T12:41:44.228Z,101308.13
2023-04-03T12:44:41.491Z,101328.38
2023-04-03T12:47:26.359Z,101322.28
2023-04-03T12:49:59.566Z,101314.44
2023-04-03T12:52:41.865Z,101317.31
2023-04-03T12:55:21.160Z,101293.69
2023-04-03T12:57:50.757Z,101308.47
2023-04-03T13:00:40.837Z,101317.13
2023-04-03T13:03:27.900Z,101319.00
2023-04-03T13:06:04.391Z,101323.66
2023-04-03T13:08:33.647Z,101323.25
2023-04-03T13:11:08.322Z,101308.59
2023-04-03T13:13:37.704Z,101308.31
2023-04-03T13:16:14.763Z,101321.22
2023-04-03T13:18:43.766Z,101316.66
2023-04-03T13:21:21.789Z,101307.13
2023-04-03T13:24:03.539Z,101319.81
2023-04-03T13:26:37.264Z,101311.59
2023-04-03T13:29:12.728Z,101318.44
2023-04-03T13:31:46.941Z,101316.69
2023-04-03T13:34:26.989Z,101319.66
2023-04-03T13:37:05.348Z,101315.22
2023-04-03T13:42:28.137Z,101310.03
2023-04-03T13:45:21.671Z,101311.88
2023-04-03T13:47:53.888Z,101316.00
2023-04-03T13:50:26.319Z,101313.03
2023-04-03T13:53:04.304Z,101312.06
2023-04-03T13:55:37.323Z,101311.22
2023-04-03T13:58:25.267Z,101315.66
2023-04-03T14:00:57.053Z,101320.75
2023-04-03T14:03:33.024Z,101308.97
2023-04-03T14:06:05.410Z,101318.00
2023-04-03T14:08:42.996Z,101307.06
2023-04-03T14:11:18.338Z,101314.63
2023-04-03T14:13:49.803Z,101304.66
2023-04-03T14:16:24.238Z,101306.41
2023-04-03T14:18:54.246Z,101305.63
2023-04-03T14:21:24.017Z,101306.13
2023-04-03T14:23:57.504Z,101293.22
2023-04-03T14:26:28.253Z,101310.28
2023-04-03T14:28:58.170Z,101311.97
2023-04-03T14:31:27.665Z,101312.81
2023-04-03T14:33:56.870Z,101312.53
2023-04-03T14:36:29.087Z,101306.50
2023-04-03T14:39:00.416Z,101300.59
2023-04-03T14:41:30.007Z,101302.41
2023-04-03T14:43:59.311Z,101297.25
2023-04-03T14:46:48.220Z,101299.91
2023-04-03T14:49:27.587Z,101302.59
2023-04-03T14:51:57.684Z,101301.75
2023-04-03T14:54:30.144Z,101310.53
2023-04-03T14:57:02.998Z,101307.81
2023-04-03T14:59:34.142Z,101312.53
2023-04-03T15:02:03.398Z,101307.19
2023-04-03T15:04:32.788Z,101309.59
2023-04-03T15:07:01.755Z,101314.63
2023-04-03T15:09:32.333Z,101314.97
2023-04-03T15:12:01.417Z,101311.53
2023-04-03T15:14:37.157Z,101309.00
2023-04-03T15:17:07.950Z,101312.34
2023-04-03T15:19:41.304Z,101312.34
2023-04-03T15:22:17.082Z,101312.31
2023-04-03T15:24:48.194Z,101311.53
2023-04-03T15:27:17.832Z,101315.06
2023-04-03T15:29:48.066Z,101312.88
2023-04-03T15:32:16.973Z,101318.34
2023-04-03T15:34:46.193Z,101313.25
2023-04-03T15:37:15.095Z,101322.00
2023-04-03T15:39:44.197Z,101316.06
2023-04-03T15:42:14.396Z,101313.56
2023-04-03T15:44:43.564Z,101323.06
2023-04-03T15:47:12.940Z,101315.38
2023-04-03T15:49:42.564Z,101319.81
2023-04-03T15:52:11.500Z,101313.59
2023-04-03T15:54:40.873Z,101311.94
2023-04-03T15:57:09.879Z,101315.53
2023-04-03T15:59:40.555Z,101309.47
2023-04-03T16:02:15.105Z,101319.16
2023-04-03T16:04:44.610Z,101320.81
2023-04-03T16:07:13.617Z,101314.38
2023-04-03T16:09:42.744Z,101317.09
2023-04-03T16:12:11.780Z,101314.53
2023-04-03T16:14:42.360Z,101317.19
2023-04-03T16:17:11.309Z,101310.72
2023-04-03T16:19:40.636Z,101317.03
2023-04-03T16:22:09.734Z,101313.63
2023-04-03T16:24:39.172Z,101312.81
2023-04-03T16:27:08.196Z,101311.00
2023-04-03T16:29:37.350Z,101317.63
2023-04-03T16:32:07.673Z,101317.31
2023-04-03T16:34:37.262Z,101315.63
2023-04-03T16:37:06.256Z,101311.31
2023-04-03T16:39:35.481Z,101320.03
2023-04-03T16:42:04.500Z,101315.00
2023-04-03T16:44:33.757Z,101322.72
2023-04-03T16:47:02.835Z,101324.50
2023-04-03T16:49:35.137Z,101325.22
2023-04-03T16:52:06.279Z,101318.19
2023-04-03T16:54:35.696Z,101320.81
2023-04-03T16:57:04.667Z,101323.31
2023-04-03T16:59:34.178Z,101328.94
2023-04-03T17:02:03.690Z,101326.34
2023-04-03T17:04:34.350Z,101335.75
2023-04-03T17:07:07.020Z,101342.22
2023-04-03T17:09:36.525Z,101343.06
2023-04-03T17:12:05.972Z,101342.38
2023-04-03T17:14:35.124Z,101341.38
2023-04-03T17:17:05.211Z,101339.03
2023-04-03T17:19:36.511Z,101338.19
2023-04-03T17:22:05.741Z,101345.19
2023-04-03T17:24:35.676Z,101343.44
2023-04-03T17:27:05.511Z,101342.63
2023-04-03T17:29:34.773Z,101352.53
2023-04-03T17:32:03.855Z,101349.56
2023-04-03T17:34:33.713Z,101346.34
2023-04-03T17:37:04.045Z,101351.31
2023-04-03T17:39:33.469Z,101346.97
2023-04-03T17:42:02.196Z,101352.97
2023-04-03T17:44:31.318Z,101359.25
2023-04-03T17:47:00.130Z,101361.78
2023-04-03T17:49:29.319Z,101359.16
2023-04-03T17:51:58.215Z,101360.22
2023-04-03T17:54:28.839Z,101360.97
2023-04-03T17:56:57.818Z,101364.75
2023-04-03T17:59:28.325Z,101362.97
2023-04-03T18:01:57.380Z,101362.19
2023-04-03T18:04:26.689Z,101363.25
2023-04-03T18:06:57.356Z,101362.16
2023-04-03T18:09:34.489Z,101363.91
2023-04-03T18:12:06.821Z,101362.28
2023-04-03T18:14:39.798Z,101365.84
2023-04-03T18:17:09.882Z,101365.81
2023-04-03T18:19:39.408Z,101367.03
2023-04-03T18:22:15.267Z,101373.81
2023-04-03T18:24:46.317Z,101370.34
2023-04-03T18:27:19.698Z,101371.28
2023-04-03T18:29:56.787Z,101366.78
2023-04-03T18:32:26.295Z,101364.28
2023-04-03T18:34:55.953Z,101372.16
2023-04-03T18:37:25.190Z,101377.63
2023-04-03T18:39:55.668Z,101374.28
2023-04-03T18:42:27.619Z,101377.97
2023-04-03T18:45:02.322Z,101377.06
2023-04-03T18:47:31.619Z,101385.81
2023-04-03T18:50:01.099Z,101378.06
2023-04-03T18:52:30.008Z,101385.22
2023-04-03T18:55:00.797Z,101380.19
2023-04-03T18:57:30.051Z,101375.91
2023-04-03T18:59:59.198Z,101383.63
2023-04-03T19:02:28.211Z,101377.53
2023-04-03T19:04:57.874Z,101367.41
2023-04-03T19:07:27.045Z,101376.94
2023-04-03T19:09:56.716Z,101382.00
2023-04-03T19:12:27.166Z,101380.19
2023-04-03T19:14:56.383Z,101384.47
2023-04-03T19:17:25.184Z,101377.84
2023-04-03T19:19:54.311Z,101384.81
2023-04-03T19:22:23.084Z,101377.09
2023-04-03T19:24:52.246Z,101371.84
2023-04-03T19:27:21.117Z,101378.09
2023-04-03T19:29:51.776Z,101378.97
2023-04-03T19:32:20.720Z,101384.00
2023-04-03T19:34:49.858Z,101390.16
2023-04-03T19:37:19.490Z,101385.09
2023-04-03T19:39:48.645Z,101383.59
2023-04-03T19:42:18.915Z,101385.31
2023-04-03T19:44:49.530Z,101389.72
2023-04-03T19:47:22.077Z,101388.03
2023-04-03T19:49:51.323Z,101400.81
2023-04-03T19:52:20.199Z,101389.91
2023-04-03T19:54:51.008Z,101400.84
2023-04-03T19:57:20.642Z,101393.53
2023-04-03T19:59:49.742Z,101395.00
2023-04-03T20:02:21.494Z,101400.97
2023-04-03T20:04:51.153Z,101404.44
2023-04-03T20:07:20.150Z,101403.75
2023-04-03T20:09:49.203Z,101401.00
2023-04-03T20:12:18.515Z,101397.63
2023-04-03T20:14:47.903Z,101393.53
2023-04-03T20:17:16.737Z,101395.44
2023-04-03T20:19:47.208Z,101400.53
2023-04-03T20:22:16.339Z,101396.13
2023-04-03T20:24:45.432Z,101394.38
2023-04-03T20:27:15.374Z,101396.91
2023-04-03T20:29:44.656Z,101396.91
2023-04-03T20:32:15.024Z,101398.00
2023-04-03T20:34:48.207Z,101391.91
2023-04-03T20:37:25.003Z,101387.09
2023-04-03T20:39:54.291Z,101391.50
2023-04-03T20:42:23.096Z,101390.63
2023-04-03T20:44:52.309Z,101393.44
2023-04-03T20:47:21.249Z,101400.25
2023-04-03T20:49:52.651Z,101396.06
2023-04-03T20:52:22.910Z,101393.38
2023-04-03T20:54:52.307Z,101394.44
2023-04-03T20:57:21.659Z,101394.47
2023-04-03T20:59:53.599Z,101402.63
2023-04-03T21:02:22.720Z,101403.19
2023-04-03T21:04:56.408Z,101400.88
2023-04-03T21:08:21.000Z,101406.31
2023-04-03T21:11:47.358Z,101398.44
2023-04-03T21:15:13.119Z,101397.75
2023-04-03T21:18:26.870Z,101397.94
2023-04-03T21:20:56.192Z,101393.66
2023-04-03T21:23:28.410Z,101397.94
2023-04-03T21:25:58.128Z,101394.53
2023-04-03T21:28:27.439Z,101388.91
2023-04-03T21:30:56.421Z,101395.78
2023-04-03T21:33:27.406Z,101398.31
2023-04-03T21:35:59.995Z,101397.41
2023-04-03T21:38:29.451Z,101401.63
2023-04-03T21:40:58.830Z,101400.72
2023-04-03T21:43:28.417Z,101397.41
2023-04-03T21:45:58.549Z,101393.94
2023-04-03T21:48:30.637Z,101398.69
2023-04-03T21:51:06.806Z,101397.75
2023-04-03T21:53:36.223Z,101386.63
2023-04-03T21:56:05.275Z,101402.06
2023-04-03T21:58:35.300Z,101401.28
2023-04-03T22:01:11.794Z,101403.13
2023-04-03T22:03:44.164Z,101404.09
2023-04-03T22:06:14.985Z,101405.81
2023-04-03T22:08:44.950Z,101405.84
2023-04-03T22:11:16.864Z,101399.91
2023-04-03T22:13:46.679Z,101391.22
2023-04-03T22:16:15.885Z,101402.44
2023-04-03T22:18:46.577Z,101398.13
2023-04-03T22:21:15.761Z,101398.31
2023-04-03T22:23:44.862Z,101402.81
2023-04-03T22:26:14.625Z,101399.16
2023-04-03T22:28:46.482Z,101395.16
2023-04-03T22:31:16.934Z,101407.06
2023-04-03T22:33:47.771Z,101405.41
2023-04-03T22:36:16.739Z,101399.47
2023-04-03T22:38:46.837Z,101408.31
2023-04-03T22:41:15.948Z,101395.22
2023-04-03T22:43:44.970Z,101396.84
2023-04-03T22:46:13.839Z,101392.00
2023-04-03T22:48:45.313Z,101392.75
2023-04-03T22:51:15.508Z,101396.28
2023-04-03T22:53:44.629Z,101392.81
2023-04-03T22:56:13.881Z,101386.06
2023-04-03T22:58:44.685Z,101391.44
2023-04-03T23:01:16.007Z,101383.50
2023-04-03T23:03:45.536Z,101388.59
2023-04-03T23:06:15.842Z,101381.91
2023-04-03T23:08:44.963Z,101377.53
2023-04-03T23:11:13.743Z,101381.88
2023-04-03T23:13:43.721Z,101385.38
2023-04-03T23:16:13.087Z,101382.78
2023-04-03T23:18:43.656Z,101381.94
2023-04-03T23:21:12.974Z,101379.50
2023-04-03T23:23:43.149Z,101376.88
2023-04-03T23:26:12.516Z,101370.81
2023-04-03T23:28:41.888Z,101375.28
2023-04-03T23:31:11.323Z,101365.91
2023-04-03T23:33:43.821Z,101374.44
2023-04-03T23:36:16.021Z,101370.25
2023-04-03T23:38:46.353Z,101370.16
2023-04-03T23:41:15.487Z,101376.16
2023-04-03T23:43:44.751Z,101371.94
2023-04-03T23:46:13.909Z,101361.50
2023-04-03T23:48:42.710Z,101360.59
2023-04-03T23:51:11.929Z,101362.44
2023-04-03T23:53:40.728Z,101357.22
2023-04-03T23:56:13.246Z,101357.53
2023-04-03T23:58:42.461Z,101354.81
